createdAt,value
2016-11-17T00:03:10.312Z,0
2016-11-17T00:08:14.407Z,0
2016-11-17T00:13:18.508Z,0
2016-11-17T00:18:22.598Z,0
2016-11-17T00:23:26.687Z,0
2016-11-17T00:28:30.778Z,0
2016-11-17T00:33:35.195Z,0
2016-11-17T00:38:39.951Z,0
2016-11-17T00:43:44.046Z,0
2016-11-17T00:48:48.150Z,0
2016-11-17T00:53:52.915Z,0
2016-11-17T00:58:57.333Z,0
2016-11-17T01:04:02.090Z,0
2016-11-17T01:09:06.504Z,0
2016-11-17T01:14:10.925Z,0
2016-11-17T01:19:15.012Z,0
2016-11-17T01:24:19.443Z,0
2016-11-17T01:29:23.863Z,0
2016-11-17T01:34:28.293Z,0
2016-11-17T01:39:32.410Z,0
2016-11-17T01:44:36.849Z,0
2016-11-17T01:49:40.942Z,0
2016-11-17T01:54:45.363Z,0
2016-11-17T01:59:50.123Z,0
2016-11-17T02:04:54.208Z,0
2016-11-17T02:09:58.631Z,0
2016-11-17T02:15:03.069Z,0
2016-11-17T02:20:07.155Z,0
2016-11-17T02:25:11.581Z,0
2016-11-17T02:30:15.667Z,0
2016-11-17T02:35:19.780Z,0
2016-11-17T02:40:23.888Z,0
2016-11-17T02:45:28.320Z,0
2016-11-17T02:50:32.408Z,0
2016-11-17T02:55:36.831Z,0
2016-11-17T03:00:40.913Z,0
2016-11-17T03:05:44.994Z,0
2016-11-17T03:10:49.415Z,0
2016-11-17T03:15:53.491Z,0
2016-11-17T03:20:57.575Z,0
2016-11-17T03:26:02.336Z,0
2016-11-17T03:31:06.422Z,0
2016-11-17T03:36:10.517Z,0
2016-11-17T03:41:14.626Z,0
2016-11-17T03:46:18.726Z,0
2016-11-17T03:51:22.817Z,0
2016-11-17T03:56:27.237Z,0
2016-11-17T04:01:31.325Z,0
2016-11-17T04:06:35.407Z,0
2016-11-17T04:11:39.835Z,0
2016-11-17T04:16:44.594Z,0
2016-11-17T04:21:48.684Z,0
2016-11-17T04:26:53.099Z,0
2016-11-17T04:31:57.859Z,0
2016-11-17T04:37:02.308Z,0
2016-11-17T04:42:06.730Z,0
2016-11-17T04:47:11.494Z,0
2016-11-17T04:52:15.579Z,0
2016-11-17T04:57:20.338Z,0
2016-11-17T05:02:24.766Z,0
2016-11-17T05:07:28.867Z,0
2016-11-17T05:12:33.295Z,0
2016-11-17T05:17:37.382Z,0
2016-11-17T05:22:41.800Z,0
2016-11-17T05:27:45.951Z,0
2016-11-17T05:32:50.041Z,0
2016-11-17T05:37:54.504Z,0
2016-11-17T05:42:58.595Z,0
2016-11-17T05:48:03.351Z,0
2016-11-17T05:53:07.775Z,0
2016-11-17T05:58:11.857Z,0
2016-11-17T06:03:15.944Z,0
2016-11-17T06:08:20.364Z,0
2016-11-17T06:13:24.448Z,0
2016-11-17T06:18:28.535Z,0
2016-11-17T06:23:32.958Z,0
2016-11-17T06:28:37.390Z,0
2016-11-17T06:33:41.504Z,0
2016-11-17T06:38:45.920Z,0
2016-11-17T06:43:50.343Z,0
2016-11-17T06:48:54.766Z,0
2016-11-17T06:53:59.194Z,0
2016-11-17T06:59:03.301Z,0
2016-11-17T07:04:07.461Z,0
2016-11-17T07:09:12.463Z,0
2016-11-17T07:14:16.876Z,0
2016-11-17T07:19:20.964Z,0
2016-11-17T07:24:25.394Z,0
2016-11-17T07:29:29.817Z,0
2016-11-17T07:34:34.247Z,0
2016-11-17T07:39:38.348Z,0
2016-11-17T07:44:42.768Z,1
2016-11-17T07:49:46.872Z,2
2016-11-17T07:54:50.964Z,3
2016-11-17T07:59:55.056Z,1
2016-11-17T08:04:59.154Z,1
2016-11-17T08:10:03.245Z,2
2016-11-17T08:15:07.339Z,2
2016-11-17T08:20:11.424Z,1
2016-11-17T08:25:15.845Z,1
2016-11-17T08:30:19.941Z,1
2016-11-17T08:35:24.029Z,3
2016-11-17T08:40:28.785Z,1
2016-11-17T08:45:32.874Z,7
2016-11-17T08:50:36.967Z,6
2016-11-17T08:55:41.396Z,5
2016-11-17T09:00:45.489Z,4
2016-11-17T09:05:49.586Z,5
2016-11-17T09:10:54.010Z,4
2016-11-17T09:15:58.430Z,3
2016-11-17T09:21:02.850Z,4
2016-11-17T09:26:06.941Z,4
2016-11-17T09:31:11.037Z,4
2016-11-17T09:36:16.134Z,3
2016-11-17T09:41:20.270Z,6
2016-11-17T09:46:24.712Z,7
2016-11-17T09:51:28.869Z,8
2016-11-17T09:56:32.962Z,7
2016-11-17T10:01:37.060Z,5
2016-11-17T10:06:41.524Z,4
2016-11-17T10:11:45.702Z,9
2016-11-17T10:16:49.861Z,5
2016-11-17T10:21:54.284Z,4
2016-11-17T10:26:58.385Z,4
2016-11-17T10:32:02.814Z,7
2016-11-17T10:37:06.904Z,8
2016-11-17T10:42:10.996Z,7
2016-11-17T10:47:15.091Z,7
2016-11-17T10:52:19.190Z,7
2016-11-17T10:57:23.281Z,7
2016-11-17T11:02:27.375Z,7
2016-11-17T11:07:31.807Z,8
2016-11-17T11:12:36.236Z,9
2016-11-17T11:17:40.997Z,10
2016-11-17T11:22:45.098Z,7
2016-11-17T11:27:49.338Z,2
2016-11-17T11:32:53.432Z,1
2016-11-17T11:37:58.194Z,2
2016-11-17T11:43:02.297Z,2
2016-11-17T11:48:06.386Z,1
2016-11-17T11:53:10.479Z,2
2016-11-17T11:58:15.252Z,1
2016-11-17T12:03:19.681Z,2
2016-11-17T12:08:23.772Z,2
2016-11-17T12:13:28.203Z,2
2016-11-17T12:18:32.297Z,1
2016-11-17T12:23:36.724Z,1
2016-11-17T12:28:41.143Z,1
2016-11-17T12:33:45.910Z,1
2016-11-17T12:38:50.678Z,0
2016-11-17T12:43:55.098Z,1
2016-11-17T12:48:59.528Z,1
2016-11-17T12:54:03.956Z,1
2016-11-17T12:59:08.724Z,1
2016-11-17T13:04:12.877Z,1
2016-11-17T13:09:17.335Z,2
2016-11-17T13:14:21.434Z,4
2016-11-17T13:19:25.866Z,2
2016-11-17T13:24:29.959Z,2
2016-11-17T13:29:34.058Z,2
2016-11-17T13:34:38.158Z,1
2016-11-17T13:39:42.255Z,1
2016-11-17T13:44:46.956Z,1
2016-11-17T13:49:51.060Z,1
2016-11-17T13:54:55.151Z,1
2016-11-17T13:59:59.244Z,2
2016-11-17T14:05:03.667Z,1
2016-11-17T14:10:07.763Z,1
2016-11-17T14:15:11.869Z,1
2016-11-17T14:20:16.630Z,0
2016-11-17T14:25:21.400Z,0
2016-11-17T14:30:25.838Z,0
2016-11-17T14:35:30.261Z,0
2016-11-17T14:40:34.676Z,0
2016-11-17T14:45:38.764Z,0
2016-11-17T14:50:42.880Z,0
2016-11-17T14:55:47.376Z,0
2016-11-17T15:00:51.491Z,0
2016-11-17T15:05:55.591Z,0
2016-11-17T15:10:59.685Z,0
2016-11-17T15:16:03.797Z,0
2016-11-17T15:21:08.264Z,0
2016-11-17T15:26:13.041Z,0
2016-11-17T15:31:17.132Z,0
2016-11-17T15:36:22.083Z,0
2016-11-17T15:41:26.168Z,0
2016-11-17T15:46:30.599Z,0
2016-11-17T15:51:35.021Z,0
2016-11-17T15:56:39.450Z,0
2016-11-17T16:01:43.540Z,0
2016-11-17T16:06:47.965Z,0
2016-11-17T16:11:52.053Z,0
2016-11-17T16:16:56.477Z,0
2016-11-17T16:22:00.903Z,0
2016-11-17T16:27:04.994Z,0
2016-11-17T16:32:09.084Z,0
2016-11-17T16:37:13.204Z,0
2016-11-17T16:42:17.311Z,0
2016-11-17T16:47:21.419Z,0
2016-11-17T16:52:26.177Z,0
2016-11-17T16:57:30.262Z,0
2016-11-17T17:02:34.359Z,0
2016-11-17T17:07:38.452Z,0
2016-11-17T17:12:42.538Z,0
2016-11-17T17:17:46.637Z,0
2016-11-17T17:22:50.743Z,0
2016-11-17T17:27:55.188Z,0
2016-11-17T17:32:59.303Z,0
2016-11-17T17:38:03.399Z,0
2016-11-17T17:43:07.509Z,0
2016-11-17T17:48:12.268Z,0
2016-11-17T17:53:16.697Z,0
2016-11-17T17:58:20.789Z,0
2016-11-17T18:03:24.883Z,0
2016-11-17T18:08:28.977Z,0
2016-11-17T18:13:33.407Z,0
2016-11-17T18:18:37.500Z,0
2016-11-17T18:23:41.585Z,0
2016-11-17T18:28:46.015Z,0
2016-11-17T18:33:50.110Z,0
2016-11-17T18:38:54.221Z,0
2016-11-17T18:43:58.335Z,0
2016-11-17T18:49:02.762Z,0
2016-11-17T18:54:07.188Z,0
2016-11-17T18:59:11.617Z,0
2016-11-17T19:04:15.709Z,0
2016-11-17T19:09:20.474Z,0
2016-11-17T19:14:24.575Z,0
2016-11-17T19:19:28.997Z,0
2016-11-17T19:24:33.423Z,0
2016-11-17T19:29:37.959Z,0
2016-11-17T19:34:42.068Z,0
2016-11-17T19:39:46.207Z,0
2016-11-17T19:44:50.993Z,0
2016-11-17T19:49:55.765Z,0
2016-11-17T19:54:59.862Z,0
2016-11-17T20:00:03.945Z,0
2016-11-17T20:05:08.708Z,0
2016-11-17T20:10:12.796Z,0
2016-11-17T20:15:17.549Z,0
2016-11-17T20:20:21.670Z,0
2016-11-17T20:25:26.090Z,0
2016-11-17T20:30:30.851Z,0
2016-11-17T20:35:34.948Z,0
2016-11-17T20:40:39.148Z,0
2016-11-17T20:45:43.574Z,0
2016-11-17T20:50:47.684Z,0
2016-11-17T20:55:51.774Z,0
2016-11-17T21:00:55.858Z,0
2016-11-17T21:05:59.948Z,0
2016-11-17T21:11:04.039Z,0
2016-11-17T21:16:08.182Z,0
2016-11-17T21:21:12.601Z,0
2016-11-17T21:26:16.698Z,0
2016-11-17T21:31:20.788Z,0
2016-11-17T21:36:24.882Z,0
2016-11-17T21:41:29.302Z,0
2016-11-17T21:46:33.763Z,0
2016-11-17T21:51:38.229Z,0
2016-11-17T21:56:42.338Z,0
2016-11-17T22:01:46.425Z,0
2016-11-17T22:06:50.521Z,0
2016-11-17T22:11:54.951Z,0
2016-11-17T22:16:59.042Z,0
2016-11-17T22:22:03.129Z,0
2016-11-17T22:27:07.226Z,0
2016-11-17T22:32:11.321Z,0
2016-11-17T22:37:15.752Z,0
2016-11-17T22:42:20.512Z,0
2016-11-17T22:47:24.606Z,0
2016-11-17T22:52:28.690Z,0
2016-11-17T22:57:32.781Z,0
2016-11-17T23:02:36.883Z,0
2016-11-17T23:07:41.308Z,0
2016-11-17T23:12:45.391Z,0
2016-11-17T23:17:49.817Z,0
2016-11-17T23:22:53.906Z,0
2016-11-17T23:27:58.327Z,0
2016-11-17T23:33:02.414Z,0
2016-11-17T23:38:06.503Z,0
2016-11-17T23:43:10.598Z,0
2016-11-17T23:48:15.018Z,0
2016-11-17T23:53:19.458Z,0
2016-11-17T23:58:23.550Z,0
